createdAt,value
2023-04-17T00:01:37.934Z,100.00
2023-04-17T00:06:43.278Z,100.00
2023-04-17T00:11:47.137Z,100.00
2023-04-17T00:16:52.493Z,100.00
2023-04-17T00:21:56.274Z,100.00
2023-04-17T00:27:01.373Z,100.00
2023-04-17T00:32:06.866Z,100.00
2023-04-17T00:37:10.779Z,100.00
2023-04-17T00:42:14.482Z,100.00
2023-04-17T00:47:22.341Z,100.00
2023-04-17T00:52:29.745Z,100.00
2023-04-17T00:57:34.349Z,100.00
2023-04-17T01:02:39.624Z,100.00
2023-04-17T01:07:43.837Z,100.00
2023-04-17T01:12:49.316Z,100.00
2023-04-17T01:17:54.848Z,100.00
2023-04-17T01:22:59.241Z,100.00
2023-04-17T01:28:04.779Z,100.00
2023-04-17T01:33:08.618Z,100.00
2023-04-17T01:38:13.067Z,100.00
2023-04-17T01:43:19.563Z,100.00
2023-04-17T01:48:23.258Z,100.00
2023-04-17T01:53:27.313Z,100.00
2023-04-17T01:58:32.342Z,100.00
2023-04-17T02:03:36.499Z,100.00
2023-04-17T02:08:40.305Z,100.00
2023-04-17T02:13:45.456Z,100.00
2023-04-17T02:18:49.482Z,100.00
2023-04-17T02:23:53.211Z,100.00
2023-04-17T02:28:58.412Z,100.00
2023-04-17T02:34:02.105Z,100.00
2023-04-17T02:39:06.658Z,100.00
2023-04-17T02:44:11.837Z,100.00
2023-04-17T02:49:15.569Z,100.00
2023-04-17T02:54:19.340Z,100.00
2023-04-17T02:59:25.100Z,100.00
2023-04-17T03:04:29.009Z,100.00
2023-04-17T03:09:32.680Z,100.00
2023-04-17T03:14:37.825Z,100.00
2023-04-17T03:19:41.609Z,100.00
2023-04-17T03:24:45.542Z,100.00
2023-04-17T03:29:51.755Z,100.00
2023-04-17T03:34:56.010Z,100.00
2023-04-17T03:39:59.718Z,100.00
2023-04-17T03:45:05.664Z,100.00
2023-04-17T03:50:10.283Z,100.00
2023-04-17T03:55:15.986Z,100.00
2023-04-17T04:00:22.127Z,100.00
2023-04-17T04:05:26.194Z,100.00
2023-04-17T04:10:30.693Z,100.00
2023-04-17T04:15:35.862Z,100.00
2023-04-17T04:20:42.097Z,100.00
2023-04-17T04:25:46.639Z,100.00
2023-04-17T04:30:55.162Z,100.00
2023-04-17T04:36:02.049Z,100.00
2023-04-17T04:41:10.063Z,100.00
2023-04-17T04:46:16.428Z,100.00
2023-04-17T04:51:20.869Z,100.00
2023-04-17T04:56:25.895Z,100.00
2023-04-17T05:01:32.149Z,100.00
2023-04-17T05:06:36.108Z,100.00
2023-04-17T05:11:40.280Z,100.00
2023-04-17T05:16:45.660Z,100.00
2023-04-17T05:21:49.806Z,100.00
2023-04-17T05:26:54.488Z,100.00
2023-04-17T05:31:59.988Z,100.00
2023-04-17T05:37:07.147Z,100.00
2023-04-17T05:42:10.861Z,100.00
2023-04-17T05:47:16.726Z,100.00
2023-04-17T05:52:20.780Z,100.00
2023-04-17T05:57:25.172Z,100.00
2023-04-17T06:02:30.848Z,100.00
2023-04-17T06:07:35.101Z,100.00
2023-04-17T06:12:39.483Z,100.00
2023-04-17T06:17:45.102Z,100.00
2023-04-17T06:22:49.555Z,100.00
2023-04-17T06:27:53.323Z,100.00
2023-04-17T06:32:58.777Z,100.00
2023-04-17T06:38:02.911Z,100.00
2023-04-17T06:43:07.443Z,100.00
2023-04-17T06:48:15.404Z,100.00
2023-04-17T06:53:19.292Z,100.00
2023-04-17T06:58:23.116Z,100.00
2023-04-17T07:03:28.458Z,100.00
2023-04-17T07:08:32.392Z,100.00
2023-04-17T07:13:36.407Z,100.00
2023-04-17T07:18:41.723Z,100.00
2023-04-17T07:23:45.841Z,100.00
2023-04-17T07:28:49.646Z,100.00
2023-04-17T07:33:55.058Z,100.00
2023-04-17T07:38:58.910Z,100.00
2023-04-17T07:44:05.339Z,100.00
2023-04-17T07:49:12.190Z,100.00
2023-04-17T07:54:16.257Z,100.00
2023-04-17T07:59:19.957Z,100.00
2023-04-17T08:04:25.978Z,100.00
2023-04-17T08:09:29.998Z,100.00
2023-04-17T08:14:34.128Z,100.00
2023-04-17T08:19:39.162Z,100.00
2023-04-17T08:24:43.214Z,100.00
2023-04-17T08:29:46.927Z,100.00
2023-04-17T08:34:52.612Z,100.00
2023-04-17T08:39:56.476Z,100.00
2023-04-17T08:45:01.052Z,100.00
2023-04-17T08:50:11.526Z,100.00
2023-04-17T08:55:17.292Z,100.00
2023-04-17T09:00:25.694Z,100.00
2023-04-17T09:05:33.337Z,100.00
2023-04-17T09:10:38.072Z,100.00
2023-04-17T09:15:43.149Z,100.00
2023-04-17T09:20:51.509Z,100.00
2023-04-17T09:26:08.268Z,100.00
2023-04-17T09:31:26.831Z,100.00
2023-04-17T09:36:33.249Z,100.00
2023-04-17T09:41:39.419Z,100.00
2023-04-17T09:46:45.723Z,100.00
2023-04-17T09:51:52.392Z,100.00
2023-04-17T09:56:56.345Z,100.00
2023-04-17T10:02:01.952Z,100.00
2023-04-17T10:07:07.126Z,100.00
2023-04-17T10:12:14.554Z,100.00
2023-04-17T10:17:25.500Z,100.00
2023-04-17T10:22:34.817Z,100.00
2023-04-17T10:27:45.480Z,100.00
2023-04-17T10:33:28.264Z,100.00
2023-04-17T10:38:35.220Z,100.00
2023-04-17T10:43:43.208Z,100.00
2023-04-17T10:48:52.596Z,100.00
2023-04-17T10:53:58.984Z,100.00
2023-04-17T10:59:04.564Z,100.00
2023-04-17T11:04:09.405Z,100.00
2023-04-17T11:09:16.060Z,100.00
2023-04-17T11:14:21.524Z,100.00
2023-04-17T11:19:26.605Z,100.00
2023-04-17T11:24:33.112Z,100.00
2023-04-17T11:29:36.843Z,100.00
2023-04-17T11:34:41.183Z,100.00
2023-04-17T11:39:46.526Z,100.00
2023-04-17T11:44:50.348Z,100.00
2023-04-17T11:49:54.049Z,100.00
2023-04-17T11:54:59.831Z,100.00
2023-04-17T12:00:14.028Z,100.00
2023-04-17T12:05:18.592Z,92.17
2023-04-17T12:10:23.805Z,99.14
2023-04-17T12:15:27.876Z,100.00
2023-04-17T12:20:31.620Z,100.00
2023-04-17T12:25:37.135Z,100.00
2023-04-17T12:30:42.681Z,100.00
2023-04-17T12:35:46.482Z,96.30
2023-04-17T12:40:51.485Z,93.00
2023-04-17T12:45:55.306Z,89.56
2023-04-17T12:50:59.065Z,86.72
2023-04-17T12:56:04.430Z,85.23
2023-04-17T13:01:08.182Z,80.38
2023-04-17T13:06:12.327Z,76.66
2023-04-17T13:11:17.450Z,73.02
2023-04-17T13:16:21.415Z,73.11
2023-04-17T13:21:25.280Z,70.51
2023-04-17T13:26:30.602Z,63.08
2023-04-17T13:31:34.334Z,60.18
2023-04-17T13:36:38.167Z,61.02
2023-04-17T13:41:43.225Z,58.90
2023-04-17T13:46:47.155Z,58.50
2023-04-17T13:51:50.922Z,55.16
2023-04-17T13:56:57.370Z,50.60
2023-04-17T14:02:03.912Z,48.83
2023-04-17T14:07:07.848Z,49.05
2023-04-17T14:12:16.746Z,46.19
2023-04-17T14:17:20.620Z,44.65
2023-04-17T14:22:24.373Z,42.38
2023-04-17T14:27:29.569Z,40.88
2023-04-17T14:32:33.309Z,39.93
2023-04-17T14:37:37.156Z,40.07
2023-04-17T14:42:53.521Z,37.65
2023-04-17T14:47:58.928Z,37.72
2023-04-17T14:53:03.500Z,36.13
2023-04-17T14:58:08.558Z,34.82
2023-04-17T15:03:12.473Z,34.61
2023-04-17T15:08:16.291Z,34.16
2023-04-17T15:13:21.479Z,33.09
2023-04-17T15:18:25.460Z,31.66
2023-04-17T15:23:29.905Z,33.12
2023-04-17T15:28:36.997Z,33.73
2023-04-17T15:33:40.787Z,33.96
2023-04-17T15:38:44.660Z,34.42
2023-04-17T15:43:49.712Z,34.07
2023-04-17T15:49:07.516Z,33.72
2023-04-17T15:54:12.899Z,33.03
2023-04-17T15:59:18.068Z,33.70
2023-04-17T16:04:22.182Z,33.34
2023-04-17T16:09:26.226Z,33.23
2023-04-17T16:14:31.586Z,32.93
2023-04-17T16:19:35.621Z,32.69
2023-04-17T16:24:39.350Z,32.96
2023-04-17T16:29:45.776Z,33.05
2023-04-17T16:34:49.835Z,32.71
2023-04-17T16:39:54.007Z,33.66
2023-04-17T16:44:59.328Z,34.35
2023-04-17T16:50:03.715Z,34.96
2023-04-17T16:55:08.616Z,36.43
2023-04-17T17:00:15.343Z,37.10
2023-04-17T17:05:19.204Z,37.93
2023-04-17T17:10:22.948Z,38.81
2023-04-17T17:15:27.973Z,40.46
2023-04-17T17:20:31.726Z,41.12
2023-04-17T17:25:35.409Z,41.72
2023-04-17T17:30:40.629Z,42.79
2023-04-17T17:35:44.384Z,43.73
2023-04-17T17:40:48.100Z,44.66
2023-04-17T17:45:53.600Z,45.54
2023-04-17T17:50:58.157Z,48.25
2023-04-17T17:56:02.621Z,51.35
2023-04-17T18:01:08.020Z,54.65
2023-04-17T18:06:11.994Z,65.04
2023-04-17T18:11:15.796Z,77.32
2023-04-17T18:16:21.499Z,78.31
2023-04-17T18:21:26.031Z,86.60
2023-04-17T18:26:29.749Z,93.12
2023-04-17T18:31:34.941Z,96.08
2023-04-17T18:36:38.725Z,98.86
2023-04-17T18:41:42.393Z,100.00
2023-04-17T18:46:48.391Z,100.00
2023-04-17T18:51:52.262Z,100.00
2023-04-17T18:56:56.436Z,100.00
2023-04-17T19:02:01.535Z,100.00
2023-04-17T19:07:05.420Z,100.00
2023-04-17T19:12:10.047Z,100.00
2023-04-17T19:17:15.954Z,100.00
2023-04-17T19:22:19.948Z,100.00
2023-04-17T19:27:25.228Z,100.00
2023-04-17T19:32:31.990Z,100.00
2023-04-17T19:37:35.802Z,100.00
2023-04-17T19:42:39.532Z,100.00
2023-04-17T19:47:44.647Z,100.00
2023-04-17T19:52:48.590Z,100.00
2023-04-17T19:57:52.898Z,100.00
2023-04-17T20:02:58.308Z,100.00
2023-04-17T20:08:02.699Z,100.00
2023-04-17T20:13:06.758Z,100.00
2023-04-17T20:18:13.014Z,100.00
2023-04-17T20:23:17.121Z,100.00
2023-04-17T20:28:21.386Z,100.00
2023-04-17T20:33:26.854Z,100.00
2023-04-17T20:38:30.908Z,100.00
2023-04-17T20:43:34.907Z,100.00
2023-04-17T20:48:40.164Z,100.00
2023-04-17T20:53:44.242Z,100.00
2023-04-17T20:58:48.393Z,100.00
2023-04-17T21:03:53.949Z,100.00
2023-04-17T21:08:58.073Z,100.00
2023-04-17T21:14:03.565Z,100.00
2023-04-17T21:19:08.624Z,100.00
2023-04-17T21:24:12.610Z,100.00
2023-04-17T21:29:16.591Z,100.00
2023-04-17T21:34:21.897Z,100.00
2023-04-17T21:39:25.627Z,100.00
2023-04-17T21:44:29.631Z,100.00
2023-04-17T21:49:34.836Z,100.00
2023-04-17T21:54:38.915Z,100.00
2023-04-17T21:59:42.587Z,100.00
2023-04-17T22:04:47.749Z,100.00
2023-04-17T22:09:51.495Z,100.00
2023-04-17T22:14:55.218Z,100.00
2023-04-17T22:20:00.270Z,100.00
2023-04-17T22:25:04.347Z,100.00
2023-04-17T22:30:08.877Z,100.00
2023-04-17T22:35:15.202Z,100.00
2023-04-17T22:40:19.114Z,100.00
2023-04-17T22:45:22.834Z,100.00
2023-04-17T22:50:30.540Z,100.00
2023-04-17T22:55:34.658Z,100.00
2023-04-17T23:00:38.338Z,100.00
2023-04-17T23:05:43.662Z,100.00
2023-04-17T23:10:47.443Z,100.00
2023-04-17T23:15:51.961Z,100.00
2023-04-17T23:20:56.992Z,100.00
2023-04-17T23:26:00.708Z,100.00
2023-04-17T23:31:05.837Z,100.00
2023-04-17T23:36:11.281Z,100.00
2023-04-17T23:41:15.012Z,100.00
2023-04-17T23:46:18.785Z,100.00
2023-04-17T23:51:23.839Z,100.00
2023-04-17T23:56:29.544Z,100.00
